Beatrice, NE

8:31 PM CDT on August 19, 2017 (GMT -0500)
Beatrice Municipal

Weather History for KBIE - August, 2013

Change the Weather History Date:

Wednesday, August 21, 2013

  Actual Average Record
Temperature  
Mean Temperature 80 °F -  
Max Temperature 90 °F 89 °F 100 °F (1955)
Min Temperature 69 °F 65 °F 47 °F (1956)
Cooling Degree Days 14    
Growing Degree Days 30 (Base 50)    
Moisture  
Dew Point 70 °F    
Average Humidity 73    
Maximum Humidity 94    
Minimum Humidity 49    
Precipitation  
Precipitation 0.00 in - - ()
Sea Level Pressure  
Sea Level Pressure 29.99 in    
Wind  
Wind Speed 11 mph (South)    
Max Wind Speed 15 mph    
Max Gust Speed 20 mph    
Visibility 10 miles    
Events      
Averages and records for this station are not official NWS values.
T = Trace of Precipitation, MM = Missing Value Source: NWS Daily Summary

Daily Weather History Graph

Daily Weather History Graph

Search for Another Location

Airport or City:

Trip Planner

Search our weather history database for the weather conditions in past years. The results will help you decide how hot, cold, wet, or windy it might be!

Date:

Astronomy

Aug. 21, 2013 Rise Set
Actual Time 6:44 AM CDT 8:15 PM CDT
Civil Twilight 6:15 AM CDT 8:43 PM CDT
Nautical Twilight 5:40 AM CDT 9:18 PM CDT
Astronomical Twilight 5:04 AM CDT 9:54 PM CDT
Moon 8:24 PM CDT (8/21) 7:25 AM CDT (8/21)
Length of Visible Light 14h 28m
Length of Day
13h 31m
Waxing Gibbous, 99% of the Moon is Illuminated
Aug 21
Waxing Gibbous
Aug 28
Last Quarter
Sep 5
New
Sep 12
First Quarter
Sep 19
Full

Hourly Weather History & Observations

Time (CDT) Temp. Heat Index Dew Point Humidity Pressure Visibility Wind Dir Wind Speed Gust Speed Precip Events Conditions
12:15 AM 76.3 °F - 69.6 °F 80% 29.98 in 10.0 mi South 13.8 mph 19.6 mph N/A   Clear
12:35 AM 75.7 °F - 70.0 °F 82% 29.98 in 10.0 mi South 12.7 mph - N/A   Clear
12:55 AM 75.6 °F - 70.0 °F 83% 29.99 in 10.0 mi South 12.7 mph 18.4 mph N/A   Clear
1:15 AM 75.4 °F - 69.8 °F 83% 29.99 in 10.0 mi South 13.8 mph - N/A   Clear
1:35 AM 75.2 °F - 69.8 °F 83% 29.99 in 10.0 mi South 11.5 mph - N/A   Clear
1:55 AM 74.5 °F - 69.8 °F 85% 30.00 in 10.0 mi South 11.5 mph 17.3 mph N/A   Clear
2:15 AM 73.9 °F - 69.8 °F 87% 29.99 in 10.0 mi South 11.5 mph - N/A   Clear
2:35 AM 73.6 °F - 69.4 °F 87% 29.99 in 10.0 mi South 11.5 mph - N/A   Clear
2:55 AM 73.4 °F - 69.3 °F 87% 29.99 in 10.0 mi South 12.7 mph - N/A   Clear
3:15 AM 72.9 °F - 69.3 °F 88% 29.99 in 10.0 mi South 11.5 mph - N/A   Clear
3:35 AM 72.1 °F - 69.1 °F 90% 29.99 in 10.0 mi South 9.2 mph - N/A   Clear
3:55 AM 71.6 °F - 69.1 °F 92% 29.99 in 10.0 mi South 9.2 mph - N/A   Clear
4:15 AM 71.6 °F - 69.1 °F 92% 29.99 in 10.0 mi South 9.2 mph - N/A   Clear
4:35 AM 71.2 °F - 68.9 °F 92% 29.99 in 10.0 mi South 9.2 mph - N/A   Clear
4:55 AM 71.2 °F - 68.9 °F 92% 29.99 in 10.0 mi South 8.1 mph - N/A   Clear
5:15 AM 71.1 °F - 68.9 °F 93% 29.99 in 10.0 mi South 8.1 mph - N/A   Clear
5:35 AM 71.1 °F - 68.9 °F 93% 29.99 in 10.0 mi South 9.2 mph - N/A   Clear
5:55 AM 71.1 °F - 68.5 °F 92% 30.00 in 10.0 mi South 9.2 mph - N/A   Clear
6:15 AM 70.7 °F - 68.4 °F 92% 30.00 in 10.0 mi South 5.8 mph - N/A   Clear
6:35 AM 70.2 °F - 68.0 °F 93% 30.01 in 10.0 mi South 4.6 mph - N/A   Clear
6:55 AM 70.0 °F - 68.0 °F 93% 30.02 in 10.0 mi South 5.8 mph - N/A   Clear
7:15 AM 69.8 °F - 68.0 °F 94% 30.02 in 7.0 mi South 5.8 mph - N/A   Clear
7:35 AM 70.0 °F - 68.2 °F 94% 30.03 in 10.0 mi South 4.6 mph - N/A   Clear
7:55 AM 70.2 °F - 68.4 °F 94% 30.03 in 10.0 mi South 4.6 mph - N/A   Clear
8:15 AM 70.9 °F - 68.5 °F 92% 30.03 in 10.0 mi South 5.8 mph - N/A   Clear
8:35 AM 71.8 °F - 68.7 °F 90% 30.03 in 7.0 mi South 6.9 mph - N/A   Clear
8:55 AM 72.9 °F - 69.3 °F 88% 30.03 in 10.0 mi South 8.1 mph - N/A   Clear
9:15 AM 74.3 °F - 69.8 °F 86% 30.03 in 10.0 mi South 9.2 mph - N/A   Clear
9:35 AM 75.9 °F - 70.2 °F 82% 30.03 in 10.0 mi South 9.2 mph 16.1 mph N/A   Clear
9:55 AM 77.0 °F - 70.0 °F 79% 30.03 in 10.0 mi South 12.7 mph 17.3 mph N/A   Clear
10:15 AM 78.6 °F - 70.2 °F 75% 30.03 in 10.0 mi South 12.7 mph 16.1 mph N/A   Clear
10:35 AM 79.9 °F - 70.3 °F 73% 30.03 in 10.0 mi South 12.7 mph - N/A   Clear
10:55 AM 81.1 °F 84.9 °F 70.3 °F 70% 30.03 in 10.0 mi South 12.7 mph - N/A   Clear
11:15 AM 82.2 °F 86.4 °F 70.5 °F 68% 30.03 in 10.0 mi South 11.5 mph 16.1 mph N/A   Clear
11:35 AM 82.9 °F 85.4 °F 66.9 °F 58% 30.03 in 10.0 mi South 12.7 mph - N/A   Clear
11:55 AM 84.2 °F 87.1 °F 67.3 °F 57% 30.02 in 10.0 mi South 10.4 mph 18.4 mph N/A   Clear
12:15 PM 84.7 °F 87.9 °F 68.0 °F 57% 30.02 in 10.0 mi South 12.7 mph - N/A   Clear
12:35 PM 85.5 °F 88.8 °F 68.2 °F 56% 30.01 in 10.0 mi South 12.7 mph - N/A   Clear
12:55 PM 86.4 °F 90.0 °F 68.7 °F 55% 30.01 in 10.0 mi South 12.7 mph - N/A   Clear
1:15 PM 86.9 °F 90.6 °F 68.2 °F 54% 30.01 in 10.0 mi South 12.7 mph - N/A   Clear
1:35 PM 87.6 °F 91.5 °F 68.5 °F 53% 30.01 in 10.0 mi SSW 11.5 mph - N/A   Clear
1:55 PM 88.2 °F 92.1 °F 68.5 °F 52% 30.00 in 10.0 mi South 11.5 mph - N/A   Clear
2:15 PM 88.9 °F 93.4 °F 69.4 °F 52% 30.00 in 10.0 mi South 12.7 mph 17.3 mph N/A   Clear
2:35 PM 89.2 °F 93.6 °F 68.7 °F 51% 30.00 in 10.0 mi South 13.8 mph - N/A   Clear
2:55 PM 89.6 °F 94.3 °F 69.3 °F 51% 29.99 in 10.0 mi South 13.8 mph - N/A   Clear
3:15 PM 90.0 °F 95.0 °F 69.8 °F 51% 29.99 in 10.0 mi SSW 11.5 mph - N/A   Clear
3:35 PM 90.3 °F 95.2 °F 69.3 °F 50% 29.98 in 10.0 mi South 15.0 mph - N/A   Clear
3:55 PM 90.5 °F 95.1 °F 69.1 °F 49% 29.98 in 10.0 mi South 15.0 mph - N/A   Clear
4:15 PM 90.5 °F 95.5 °F 69.6 °F 50% 29.98 in 10.0 mi South 13.8 mph 19.6 mph N/A   Clear
4:35 PM 90.5 °F 95.1 °F 68.9 °F 49% 29.97 in 10.0 mi South 12.7 mph - N/A   Clear
4:55 PM 90.7 °F 95.9 °F 70.0 °F 50% 29.97 in 10.0 mi South 13.8 mph - N/A   Clear
5:15 PM 90.5 °F 95.5 °F 69.4 °F 50% 29.97 in 10.0 mi South 12.7 mph - N/A   Clear
5:35 PM 90.1 °F 94.9 °F 69.4 °F 50% 29.97 in 10.0 mi South 11.5 mph - N/A   Clear
5:55 PM 89.6 °F 95.2 °F 70.3 °F 53% 29.97 in 10.0 mi South 11.5 mph - N/A   Clear
6:15 PM 89.2 °F 94.5 °F 70.2 °F 53% 29.97 in 10.0 mi South 11.5 mph 16.1 mph N/A   Clear
6:35 PM 88.2 °F 94.6 °F 71.8 °F 58% 29.97 in 10.0 mi SSE 5.8 mph - N/A   Clear
6:55 PM 87.8 °F 93.0 °F 70.2 °F 56% 29.96 in 10.0 mi South 10.4 mph 16.1 mph N/A   Clear
7:15 PM 86.5 °F 91.8 °F 70.9 °F 59% 29.97 in 10.0 mi South 9.2 mph - N/A   Clear
7:35 PM 85.1 °F 89.8 °F 70.2 °F 61% 29.96 in 10.0 mi SSE 8.1 mph - N/A   Clear
7:55 PM 84.2 °F 88.7 °F 70.5 °F 63% 29.96 in 10.0 mi SSE 6.9 mph - N/A   Clear
8:15 PM 82.8 °F 87.7 °F 71.6 °F 69% 29.96 in 10.0 mi SSE 6.9 mph - N/A   Clear
8:35 PM 82.4 °F 86.7 °F 70.9 °F 68% 29.96 in 10.0 mi SSE 6.9 mph - N/A   Clear
8:55 PM 81.7 °F 85.4 °F 70.3 °F 68% 29.96 in 10.0 mi SSE 8.1 mph - N/A   Clear
9:15 PM 81.5 °F 84.9 °F 69.8 °F 67% 29.97 in 10.0 mi SSE 9.2 mph - N/A   Clear
9:35 PM 80.1 °F 83.6 °F 71.1 °F 74% 29.98 in 10.0 mi SSE 9.2 mph - N/A   Clear
9:55 PM 79.2 °F - 71.6 °F 78% 29.99 in 10.0 mi SSE 6.9 mph - N/A   Clear
10:15 PM 78.8 °F - 71.6 °F 78% 29.98 in 10.0 mi SSE 8.1 mph - N/A   Clear
10:35 PM 77.7 °F - 71.6 °F 81% 29.97 in 10.0 mi SSE 6.9 mph - N/A   Clear
10:55 PM 77.0 °F - 71.6 °F 83% 29.97 in 10.0 mi SSE 9.2 mph - N/A   Clear
11:15 PM 76.3 °F - 71.4 °F 85% 29.96 in 10.0 mi South 8.1 mph - N/A   Clear
11:35 PM 76.5 °F - 70.9 °F 83% 29.97 in 10.0 mi South 9.2 mph - N/A   Clear
11:55 PM 76.1 °F - 70.7 °F 83% 29.99 in 10.0 mi South 6.9 mph - N/A   Clear